Terminal Aerodrome Forecast
Issued by NWS

Home | Current Version | Previous Version | Graphics & Text | Print | Product List | Glossary On
Versions: 1 2 3 4 5 6 7 8 9 10 11 12 13 14 15 16 17 18 19 20 21 22 23 24 25 26 27 28 29 30 31 32 33 34 35 36 37 38 39
000
FTUS43 KLOT 251200 AAA
TAFORD
TAF AMD
KORD 251220Z 2512/2618 04014G22KT 6SM -PLSN OVC006
     FM251400 05018G27KT 4SM -SN BR OVC009
      TEMPO 2515/2518 1 1/2SM -SN BR VV007
     FM251900 05019G26KT 6SM -SHSN OVC015
     FM252200 04014G23KT P6SM -SN BKN020
     FM260300 03012KT P6SM BKN025
     FM260700 02007KT P6SM SCT025 SCT250
     FM261400 23006KT P6SM FEW025 BKN120=

USA.gov is the U.S. government's official web portal to all federal, state and local government web resources and services.